createdAt,value
2022-08-12T00:02:03.632Z,19.00
2022-08-12T00:04:52.162Z,18.90
2022-08-12T00:07:39.378Z,18.90
2022-08-12T00:10:28.230Z,18.90
2022-08-12T00:13:15.263Z,18.80
2022-08-12T00:16:03.673Z,18.80
2022-08-12T00:18:50.557Z,18.80
2022-08-12T00:21:38.277Z,18.80
2022-08-12T00:24:26.377Z,18.80
2022-08-12T00:27:16.146Z,18.80
2022-08-12T00:30:03.178Z,18.70
2022-08-12T00:32:54.664Z,18.70
2022-08-12T00:35:44.469Z,18.70
2022-08-12T00:38:31.595Z,18.70
2022-08-12T00:41:19.489Z,18.70
2022-08-12T00:43:50.372Z,18.70
2022-08-12T00:46:33.213Z,18.70
2022-08-12T00:49:02.995Z,18.60
2022-08-12T00:51:46.151Z,18.60
2022-08-12T00:54:15.320Z,18.60
2022-08-12T00:56:44.888Z,18.60
2022-08-12T00:59:15.686Z,18.60
2022-08-12T01:02:10.841Z,18.50
2022-08-12T01:04:56.148Z,18.50
2022-08-12T01:07:45.606Z,18.50
2022-08-12T01:10:32.558Z,18.50
2022-08-12T01:13:07.548Z,18.40
2022-08-12T01:15:53.019Z,18.40
2022-08-12T01:18:24.643Z,18.30
2022-08-12T01:21:04.797Z,18.30
2022-08-12T01:23:50.311Z,18.30
2022-08-12T01:26:23.393Z,18.30
2022-08-12T01:28:57.082Z,18.30
2022-08-12T01:31:30.049Z,18.30
2022-08-12T01:34:03.636Z,18.30
2022-08-12T01:36:38.014Z,18.30
2022-08-12T01:39:07.526Z,18.30
2022-08-12T01:41:43.051Z,18.30
2022-08-12T01:44:20.736Z,18.30
2022-08-12T01:46:59.742Z,18.30
2022-08-12T01:49:45.137Z,18.30
2022-08-12T01:52:25.679Z,18.30
2022-08-12T01:54:55.257Z,18.30
2022-08-12T01:57:58.195Z,18.30
2022-08-12T02:00:55.422Z,18.20
2022-08-12T02:04:00.180Z,18.20
2022-08-12T02:06:52.117Z,18.30
2022-08-12T02:09:50.642Z,18.30
2022-08-12T02:12:31.298Z,18.30
2022-08-12T02:15:13.121Z,18.20
2022-08-12T02:18:04.161Z,18.20
2022-08-12T02:20:51.148Z,18.20
2022-08-12T02:23:27.032Z,18.10
2022-08-12T02:26:00.534Z,18.10
2022-08-12T02:28:30.657Z,18.10
2022-08-12T02:31:05.299Z,18.10
2022-08-12T02:33:35.722Z,18.10
2022-08-12T02:36:06.098Z,18.10
2022-08-12T02:38:37.252Z,18.00
2022-08-12T02:41:08.277Z,18.00
2022-08-12T02:43:41.375Z,18.00
2022-08-12T02:46:15.214Z,18.00
2022-08-12T02:48:51.377Z,18.00
2022-08-12T02:51:23.819Z,18.00
2022-08-12T02:54:03.047Z,18.00
2022-08-12T02:56:40.649Z,18.00
2022-08-12T02:59:12.114Z,18.00
2022-08-12T03:01:52.119Z,18.00
2022-08-12T03:04:27.391Z,18.00
2022-08-12T03:07:10.579Z,18.00
2022-08-12T03:10:04.864Z,17.90
2022-08-12T03:12:42.817Z,17.90
2022-08-12T03:15:22.180Z,17.90
2022-08-12T03:18:26.377Z,17.80
2022-08-12T03:20:47.211Z,17.80
2022-08-12T03:23:30.177Z,17.90
2022-08-12T03:26:02.687Z,17.80
2022-08-12T03:28:54.404Z,17.80
2022-08-12T03:31:25.924Z,17.90
2022-08-12T03:34:03.054Z,17.90
2022-08-12T03:36:35.354Z,18.00
2022-08-12T03:39:36.134Z,17.90
2022-08-12T03:42:28.293Z,17.90
2022-08-12T03:45:16.220Z,17.90
2022-08-12T03:48:11.205Z,17.80
2022-08-12T03:51:06.989Z,17.80
2022-08-12T03:53:54.236Z,17.80
2022-08-12T03:56:40.745Z,17.70
2022-08-12T03:59:27.486Z,17.80
2022-08-12T04:01:58.496Z,17.70
2022-08-12T04:04:29.568Z,17.70
2022-08-12T04:07:00.803Z,17.70
2022-08-12T04:09:31.128Z,17.70
2022-08-12T04:12:17.621Z,17.70
2022-08-12T04:14:46.821Z,17.70
2022-08-12T04:17:17.241Z,17.70
2022-08-12T04:19:48.143Z,17.60
2022-08-12T04:22:18.653Z,17.70
2022-08-12T04:24:50.488Z,17.60
2022-08-12T04:27:19.839Z,17.60
2022-08-12T04:30:16.818Z,17.70
2022-08-12T04:32:43.745Z,17.60
2022-08-12T04:35:14.057Z,17.60
2022-08-12T04:37:57.948Z,17.60
2022-08-12T04:40:32.359Z,17.60
2022-08-12T04:43:02.373Z,17.60
2022-08-12T04:45:32.626Z,17.60
2022-08-12T04:48:03.135Z,17.60
2022-08-12T04:50:35.849Z,17.60
2022-08-12T04:53:09.541Z,17.60
2022-08-12T04:55:39.291Z,17.60
2022-08-12T04:58:08.403Z,17.60
2022-08-12T05:00:39.039Z,17.60
2022-08-12T05:03:09.269Z,17.70
2022-08-12T05:05:40.750Z,17.70
2022-08-12T05:08:14.080Z,17.60
2022-08-12T05:10:44.710Z,17.60
2022-08-12T05:13:16.787Z,17.60
2022-08-12T05:16:03.598Z,17.60
2022-08-12T05:18:39.434Z,17.60
2022-08-12T05:21:09.833Z,17.60
2022-08-12T05:23:41.310Z,17.60
2022-08-12T05:26:10.484Z,17.60
2022-08-12T05:28:39.514Z,17.60
2022-08-12T05:31:08.979Z,17.60
2022-08-12T05:33:40.322Z,17.70
2022-08-12T05:36:10.402Z,17.70
2022-08-12T05:38:59.936Z,17.70
2022-08-12T05:41:30.810Z,17.80
2022-08-12T05:44:02.107Z,17.80
2022-08-12T05:46:32.412Z,17.80
2022-08-12T05:49:01.784Z,17.80
2022-08-12T05:51:40.801Z,17.90
2022-08-12T05:54:12.918Z,18.00
2022-08-12T05:56:42.459Z,18.10
2022-08-12T05:59:12.780Z,18.30
2022-08-12T06:02:10.503Z,18.40
2022-08-12T06:04:33.383Z,18.50
2022-08-12T06:07:42.800Z,18.80
2022-08-12T06:09:53.465Z,18.80
2022-08-12T06:12:23.449Z,19.10
2022-08-12T06:14:55.147Z,19.20
2022-08-12T06:17:24.254Z,19.40
2022-08-12T06:20:26.634Z,19.50
2022-08-12T06:22:42.772Z,19.70
2022-08-12T06:25:21.826Z,19.90
2022-08-12T06:28:06.544Z,20.00
2022-08-12T06:30:39.478Z,20.10
2022-08-12T06:33:57.858Z,20.30
2022-08-12T06:35:59.742Z,20.40
2022-08-12T06:38:32.379Z,20.50
2022-08-12T06:41:20.464Z,20.70
2022-08-12T06:44:04.840Z,20.80
2022-08-12T06:46:38.981Z,20.90
2022-08-12T06:49:13.299Z,21.00
2022-08-12T06:51:42.373Z,21.20
2022-08-12T06:54:31.408Z,21.30
2022-08-12T06:57:56.921Z,21.40
2022-08-12T06:59:51.918Z,21.40
2022-08-12T07:02:22.983Z,21.40
2022-08-12T07:04:52.710Z,21.60
2022-08-12T07:07:21.821Z,21.70
2022-08-12T07:10:04.681Z,21.80
2022-08-12T07:12:37.993Z,21.90
2022-08-12T07:15:08.094Z,22.00
2022-08-12T07:17:37.785Z,22.10
2022-08-12T07:20:35.686Z,22.20
2022-08-12T07:23:01.936Z,22.30
2022-08-12T07:25:41.217Z,22.40
2022-08-12T07:28:17.103Z,22.50
2022-08-12T07:30:48.640Z,22.60
2022-08-12T07:33:18.703Z,22.70
2022-08-12T07:35:48.600Z,22.80
2022-08-12T07:38:29.875Z,22.90
2022-08-12T07:41:03.547Z,22.90
2022-08-12T07:43:36.601Z,22.90
2022-08-12T07:46:10.568Z,22.90
2022-08-12T07:48:42.150Z,23.00
2022-08-12T07:51:11.639Z,23.10
2022-08-12T07:54:00.199Z,23.10
2022-08-12T07:56:32.248Z,23.10
2022-08-12T07:59:03.124Z,23.00
2022-08-12T08:01:34.022Z,23.00
2022-08-12T08:04:19.343Z,23.10
2022-08-12T08:06:49.396Z,23.10
2022-08-12T08:09:21.328Z,23.10
2022-08-12T08:12:08.632Z,23.10
2022-08-12T08:14:40.640Z,23.10
2022-08-12T08:17:11.540Z,23.20
2022-08-12T08:20:00.240Z,23.40
2022-08-12T08:22:40.651Z,23.50
2022-08-12T08:25:20.471Z,23.60
2022-08-12T08:28:05.206Z,23.70
2022-08-12T08:30:38.384Z,23.80
2022-08-12T08:33:23.718Z,23.90
2022-08-12T08:36:00.873Z,23.90
2022-08-12T08:38:33.380Z,23.90
2022-08-12T08:42:16.660Z,23.90
2022-08-12T08:44:13.186Z,23.80
2022-08-12T08:46:44.624Z,23.70
2022-08-12T08:49:15.405Z,23.80
2022-08-12T08:51:46.240Z,23.80
2022-08-12T08:54:15.343Z,23.70
2022-08-12T08:56:46.403Z,23.70
2022-08-12T08:59:15.689Z,23.70
2022-08-12T09:01:46.815Z,23.80
2022-08-12T09:05:08.570Z,23.90
2022-08-12T09:07:17.683Z,24.00
2022-08-12T09:10:02.208Z,23.90
2022-08-12T09:15:41.687Z,24.00
2022-08-12T09:18:12.419Z,24.10
2022-08-12T09:20:44.256Z,24.10
2022-08-12T09:23:58.947Z,24.20
2022-08-12T09:26:09.899Z,24.30
2022-08-12T09:28:42.002Z,24.40
2022-08-12T09:32:03.494Z,24.60
2022-08-12T09:34:29.009Z,24.60
2022-08-12T09:36:59.973Z,24.60
2022-08-12T09:40:07.933Z,24.80
2022-08-12T09:42:54.179Z,24.90
2022-08-12T09:46:11.551Z,25.00
2022-08-12T09:48:24.052Z,25.10
2022-08-12T09:50:55.581Z,25.20
2022-08-12T09:53:36.513Z,25.10
2022-08-12T09:57:00.467Z,25.20
2022-08-12T09:59:01.903Z,25.30
2022-08-12T10:01:35.380Z,25.40
2022-08-12T10:04:21.275Z,25.40
2022-08-12T10:06:55.013Z,25.30
2022-08-12T10:09:28.563Z,25.20
2022-08-12T10:12:41.688Z,25.20
2022-08-12T10:15:15.518Z,25.10
2022-08-12T10:18:07.069Z,25.10
2022-08-12T10:20:36.818Z,25.10
2022-08-12T10:23:07.583Z,25.20
2022-08-12T10:26:34.650Z,25.20
2022-08-12T10:30:01.285Z,25.40
2022-08-12T10:32:21.365Z,25.50
2022-08-12T10:34:53.366Z,25.50
2022-08-12T10:38:34.681Z,25.50
2022-08-12T10:40:20.613Z,25.50
2022-08-12T10:43:09.490Z,25.50
2022-08-12T10:45:49.298Z,25.60
2022-08-12T10:48:26.907Z,25.60
2022-08-12T10:52:02.814Z,25.60
2022-08-12T10:53:54.326Z,25.60
2022-08-12T10:56:34.613Z,25.60
2022-08-12T10:59:10.667Z,25.60
2022-08-12T11:04:17.852Z,25.50
2022-08-12T11:04:45.292Z,25.60
2022-08-12T11:08:38.192Z,25.60
2022-08-12T11:10:09.216Z,25.60
2022-08-12T11:12:59.966Z,25.70
2022-08-12T11:15:33.187Z,25.70
2022-08-12T11:18:19.138Z,25.60
2022-08-12T11:20:49.319Z,25.60
2022-08-12T11:23:25.688Z,25.50
2022-08-12T11:26:08.133Z,25.50
2022-08-12T11:28:39.639Z,25.50
2022-08-12T11:31:13.948Z,25.50
2022-08-12T11:34:06.868Z,25.60
2022-08-12T11:36:39.470Z,25.60
2022-08-12T11:39:12.485Z,25.50
2022-08-12T11:41:43.071Z,25.50
2022-08-12T11:44:36.802Z,25.50
2022-08-12T11:47:03.179Z,25.60
2022-08-12T11:49:38.883Z,25.50
2022-08-12T11:52:17.618Z,25.40
2022-08-12T11:54:56.984Z,25.40
2022-08-12T11:58:33.861Z,25.50
2022-08-12T12:02:02.053Z,25.50
2022-08-12T12:03:06.244Z,25.50
2022-08-12T12:05:39.558Z,25.50
2022-08-12T12:08:41.338Z,25.40
2022-08-12T12:10:59.896Z,25.50
2022-08-12T12:14:08.062Z,25.40
2022-08-12T12:16:19.390Z,25.40
2022-08-12T12:18:48.789Z,25.30
2022-08-12T12:21:18.011Z,25.20
2022-08-12T12:24:07.484Z,25.20
2022-08-12T12:26:38.510Z,25.10
2022-08-12T12:30:13.620Z,25.20
2022-08-12T12:32:10.732Z,25.30
2022-08-12T12:35:13.082Z,25.30
2022-08-12T12:38:04.058Z,25.30
2022-08-12T12:40:19.396Z,25.20
2022-08-12T12:42:56.889Z,25.20
2022-08-12T12:45:33.396Z,25.20
2022-08-12T12:48:05.595Z,25.20
2022-08-12T12:50:42.815Z,25.30
2022-08-12T12:54:07.811Z,25.30
2022-08-12T12:56:09.284Z,25.40
2022-08-12T12:58:40.236Z,25.40
2022-08-12T13:01:26.746Z,25.30
2022-08-12T13:04:01.680Z,25.30
2022-08-12T13:06:32.474Z,25.30
2022-08-12T13:09:03.939Z,25.30
2022-08-12T13:11:41.431Z,25.20
2022-08-12T13:14:28.161Z,25.20
2022-08-12T13:17:02.791Z,25.20
2022-08-12T13:19:44.478Z,25.20
2022-08-12T13:22:23.789Z,25.10
2022-08-12T13:24:56.374Z,25.10
2022-08-12T13:27:35.629Z,25.20
2022-08-12T13:30:12.500Z,25.20
2022-08-12T13:32:57.119Z,25.20
2022-08-12T13:36:03.316Z,25.20
2022-08-12T13:38:26.623Z,25.20
2022-08-12T13:41:03.235Z,25.20
2022-08-12T13:43:41.316Z,25.20
2022-08-12T13:46:12.395Z,25.20
2022-08-12T13:48:45.168Z,25.10
2022-08-12T13:51:24.117Z,25.10
2022-08-12T13:53:58.982Z,25.00
2022-08-12T13:56:35.179Z,24.90
2022-08-12T13:59:08.460Z,24.80
2022-08-12T14:01:40.622Z,24.80
2022-08-12T14:04:12.015Z,24.70
2022-08-12T14:06:43.430Z,24.70
2022-08-12T14:09:17.429Z,24.60
2022-08-12T14:11:58.967Z,24.60
2022-08-12T14:14:31.284Z,24.60
2022-08-12T14:17:10.423Z,24.50
2022-08-12T14:20:01.212Z,24.50
2022-08-12T14:22:33.990Z,24.50
2022-08-12T14:25:03.218Z,24.50
2022-08-12T14:27:55.434Z,24.40
2022-08-12T14:30:28.830Z,24.40
2022-08-12T14:33:02.844Z,24.40
2022-08-12T14:35:34.040Z,24.40
2022-08-12T14:38:25.960Z,24.40
2022-08-12T14:40:58.746Z,24.40
2022-08-12T14:43:58.933Z,24.30
2022-08-12T14:46:24.312Z,24.30
2022-08-12T14:48:55.027Z,24.30
2022-08-12T14:52:44.211Z,24.30
2022-08-12T14:57:20.404Z,24.20
2022-08-12T15:00:10.319Z,24.20
2022-08-12T15:02:40.092Z,24.20
2022-08-12T15:05:09.868Z,24.10
2022-08-12T15:07:49.990Z,24.10
2022-08-12T15:10:31.305Z,24.10
2022-08-12T15:13:07.523Z,24.20
2022-08-12T15:15:43.660Z,24.20
2022-08-12T15:18:21.828Z,24.20
2022-08-12T15:20:54.590Z,24.20
2022-08-12T15:23:29.153Z,24.20
2022-08-12T15:26:05.123Z,24.30
2022-08-12T15:28:35.934Z,24.30
2022-08-12T15:31:21.285Z,24.40
2022-08-12T15:33:57.350Z,24.30
2022-08-12T15:36:54.126Z,24.30
2022-08-12T15:39:17.631Z,24.30
2022-08-12T15:41:49.852Z,24.20
2022-08-12T15:44:38.173Z,24.20
2022-08-12T15:47:10.451Z,24.20
2022-08-12T15:49:55.139Z,24.20
2022-08-12T15:52:31.182Z,24.20
2022-08-12T15:55:06.398Z,24.10
2022-08-12T15:57:46.827Z,24.00
2022-08-12T16:00:33.415Z,24.00
2022-08-12T16:03:08.616Z,24.00
2022-08-12T16:06:12.030Z,24.00
2022-08-12T16:08:36.499Z,24.00
2022-08-12T16:11:07.220Z,24.00
2022-08-12T16:13:38.178Z,24.00
2022-08-12T16:16:24.121Z,24.00
2022-08-12T16:18:59.499Z,24.00
2022-08-12T16:21:52.243Z,24.00
2022-08-12T16:24:21.994Z,24.00
2022-08-12T16:26:54.155Z,24.10
2022-08-12T16:29:52.573Z,24.10
2022-08-12T16:32:24.097Z,24.10
2022-08-12T16:34:55.752Z,24.10
2022-08-12T16:38:04.908Z,24.10
2022-08-12T16:40:16.180Z,24.10
2022-08-12T16:42:53.867Z,24.10
2022-08-12T16:46:07.972Z,24.20
2022-08-12T16:48:34.735Z,24.20
2022-08-12T16:51:09.251Z,24.20
2022-08-12T16:53:45.132Z,24.20
2022-08-12T16:56:15.746Z,24.20
2022-08-12T16:58:48.051Z,24.20
2022-08-12T17:01:18.502Z,24.10
2022-08-12T17:04:04.591Z,24.10
2022-08-12T17:06:41.680Z,24.00
2022-08-12T17:09:17.758Z,24.00
2022-08-12T17:11:49.112Z,23.90
2022-08-12T17:14:23.083Z,23.80
2022-08-12T17:16:55.953Z,23.70
2022-08-12T17:20:35.567Z,23.70
2022-08-12T17:22:16.893Z,23.60
2022-08-12T17:24:55.387Z,23.60
2022-08-12T17:27:26.813Z,23.70
2022-08-12T17:30:04.836Z,23.70
2022-08-12T17:32:37.119Z,23.70
2022-08-12T17:35:29.675Z,23.70
2022-08-12T17:38:02.165Z,23.70
2022-08-12T17:40:37.028Z,23.70
2022-08-12T17:43:55.931Z,23.70
2022-08-12T17:45:59.879Z,23.70
2022-08-12T17:48:35.008Z,23.70
2022-08-12T17:51:15.736Z,23.60
2022-08-12T17:54:12.499Z,23.60
2022-08-12T17:56:38.056Z,23.50
2022-08-12T17:59:12.484Z,23.50
2022-08-12T18:01:45.262Z,23.50
2022-08-12T18:04:23.302Z,23.50
2022-08-12T18:07:06.321Z,23.40
2022-08-12T18:09:38.228Z,23.40
2022-08-12T18:12:26.666Z,23.40
2022-08-12T18:14:58.483Z,23.40
2022-08-12T18:17:29.270Z,23.50
2022-08-12T18:20:06.500Z,23.40
2022-08-12T18:22:38.503Z,23.40
2022-08-12T18:26:12.437Z,23.40
2022-08-12T18:28:16.976Z,23.40
2022-08-12T18:30:53.271Z,23.40
2022-08-12T18:33:25.836Z,23.40
2022-08-12T18:35:58.413Z,23.40
2022-08-12T18:38:28.276Z,23.30
2022-08-12T18:41:21.423Z,23.30
2022-08-12T18:44:01.050Z,23.30
2022-08-12T18:46:48.939Z,23.30
2022-08-12T18:49:31.591Z,23.30
2022-08-12T18:52:05.571Z,23.30
2022-08-12T18:54:49.773Z,23.20
2022-08-12T18:58:06.943Z,23.20
2022-08-12T19:00:21.268Z,23.20
2022-08-12T19:02:53.419Z,23.20
2022-08-12T19:05:24.450Z,23.20
2022-08-12T19:08:15.763Z,23.20
2022-08-12T19:10:50.202Z,23.20
2022-08-12T19:13:39.527Z,23.20
2022-08-12T19:16:11.586Z,23.20
2022-08-12T19:18:44.943Z,23.20
2022-08-12T19:21:16.093Z,23.10
2022-08-12T19:24:07.627Z,23.10
2022-08-12T19:26:36.580Z,23.10
2022-08-12T19:29:08.429Z,23.00
2022-08-12T19:31:57.511Z,23.00
2022-08-12T19:37:27.221Z,22.80
2022-08-12T19:40:32.007Z,22.80
2022-08-12T19:43:01.135Z,22.70
2022-08-12T19:45:41.964Z,22.60
2022-08-12T19:48:17.251Z,22.60
2022-08-12T19:50:50.696Z,22.50
2022-08-12T19:53:23.463Z,22.40
2022-08-12T19:55:55.610Z,22.30
2022-08-12T19:58:25.809Z,22.30
2022-08-12T20:00:56.344Z,22.20
2022-08-12T20:03:40.649Z,22.20
2022-08-12T20:06:13.868Z,22.10
2022-08-12T20:08:49.228Z,22.10
2022-08-12T20:12:12.790Z,22.00
2022-08-12T20:14:19.534Z,21.90
2022-08-12T20:16:56.453Z,21.90
2022-08-12T20:19:52.377Z,21.90
2022-08-12T20:22:24.352Z,21.80
2022-08-12T20:25:01.661Z,21.80
2022-08-12T20:28:04.635Z,21.80
2022-08-12T20:30:52.604Z,21.80
2022-08-12T20:33:17.309Z,21.80
2022-08-12T20:36:06.989Z,21.80
2022-08-12T20:38:40.458Z,21.80
2022-08-12T20:41:16.448Z,21.80
2022-08-12T20:43:54.936Z,21.80
2022-08-12T20:46:28.100Z,21.80
2022-08-12T20:48:57.812Z,21.80
2022-08-12T20:51:40.576Z,21.80
2022-08-12T20:54:18.558Z,21.80
2022-08-12T20:56:48.910Z,21.80
2022-08-12T20:59:20.182Z,21.80
2022-08-12T21:01:54.179Z,21.80
2022-08-12T21:04:43.710Z,21.70
2022-08-12T21:07:14.334Z,21.70
2022-08-12T21:09:47.763Z,21.70
2022-08-12T21:12:31.230Z,21.60
2022-08-12T21:15:23.079Z,21.60
2022-08-12T21:18:15.444Z,21.50
2022-08-12T21:20:54.296Z,21.50
2022-08-12T21:23:25.406Z,21.50
2022-08-12T21:26:01.044Z,21.50
2022-08-12T21:28:32.043Z,21.40
2022-08-12T21:32:34.533Z,21.40
2022-08-12T21:34:07.332Z,21.30
2022-08-12T21:36:43.062Z,21.30
2022-08-12T21:39:20.832Z,21.30
2022-08-12T21:41:52.777Z,21.20
2022-08-12T21:44:32.628Z,21.20
2022-08-12T21:47:21.163Z,21.20
2022-08-12T21:50:03.500Z,21.20
2022-08-12T21:52:41.128Z,21.20
2022-08-12T21:55:17.891Z,21.10
2022-08-12T21:57:54.394Z,21.10
2022-08-12T22:00:35.026Z,21.10
2022-08-12T22:04:04.446Z,21.10
2022-08-12T22:06:26.089Z,21.10
2022-08-12T22:09:03.168Z,21.00
2022-08-12T22:11:41.443Z,21.00
2022-08-12T22:14:21.703Z,21.00
2022-08-12T22:16:54.304Z,21.00
2022-08-12T22:19:24.791Z,21.00
2022-08-12T22:21:58.889Z,21.00
2022-08-12T22:24:34.892Z,21.00
2022-08-12T22:27:17.932Z,20.90
2022-08-12T22:30:16.850Z,20.90
2022-08-12T22:32:50.487Z,20.90
2022-08-12T22:35:56.239Z,20.90
2022-08-12T22:38:23.963Z,20.80
2022-08-12T22:40:55.821Z,20.80
2022-08-12T22:43:56.367Z,20.80
2022-08-12T22:46:54.347Z,20.80
2022-08-12T22:49:37.291Z,20.80
2022-08-12T22:52:18.285Z,20.80
2022-08-12T22:55:02.949Z,20.80
2022-08-12T22:57:49.014Z,20.70
2022-08-12T23:00:27.708Z,20.70
2022-08-12T23:03:00.335Z,20.70
2022-08-12T23:05:57.576Z,20.70
2022-08-12T23:08:29.838Z,20.60
2022-08-12T23:11:05.942Z,20.60
2022-08-12T23:13:55.325Z,20.60
2022-08-12T23:16:31.145Z,20.50
2022-08-12T23:19:10.393Z,20.50
2022-08-12T23:22:06.108Z,20.50
2022-08-12T23:24:55.712Z,20.50
2022-08-12T23:27:52.274Z,20.50
2022-08-12T23:30:31.771Z,20.40
2022-08-12T23:33:13.183Z,20.50
2022-08-12T23:36:02.425Z,20.40
2022-08-12T23:38:34.578Z,20.40
2022-08-12T23:41:08.902Z,20.40
2022-08-12T23:43:40.977Z,20.50
2022-08-12T23:46:19.442Z,20.40
2022-08-12T23:48:50.255Z,20.40
2022-08-12T23:51:25.432Z,20.40
2022-08-12T23:54:00.286Z,20.40
2022-08-12T23:56:33.832Z,20.40
2022-08-12T23:59:04.850Z,20.40
